createdAt,value
2023-04-17T00:00:17.086Z,24.05
2023-04-17T00:00:50.339Z,25.48
2023-04-17T00:01:21.863Z,26.80
2023-04-17T00:01:55.680Z,26.27
2023-04-17T00:02:29.965Z,26.98
2023-04-17T00:03:01.950Z,26.23
2023-04-17T00:03:33.914Z,26.02
2023-04-17T00:04:10.678Z,25.50
2023-04-17T00:04:42.846Z,25.58
2023-04-17T00:05:17.001Z,27.25
2023-04-17T00:05:48.878Z,26.25
2023-04-17T00:06:20.426Z,26.25
2023-04-17T00:06:53.886Z,26.63
2023-04-17T00:07:28.395Z,25.05
2023-04-17T00:08:00.115Z,27.75
2023-04-17T00:08:32.764Z,25.60
2023-04-17T00:09:04.776Z,26.33
2023-04-17T00:09:36.333Z,27.42
2023-04-17T00:10:09.234Z,26.60
2023-04-17T00:10:40.826Z,24.67
2023-04-17T00:11:12.355Z,26.23
2023-04-17T00:11:43.869Z,26.77
2023-04-17T00:12:16.062Z,25.63
2023-04-17T00:12:47.707Z,25.45
2023-04-17T00:13:19.281Z,25.83
2023-04-17T00:13:50.802Z,25.80
2023-04-17T00:14:22.357Z,26.17
2023-04-17T00:14:53.890Z,27.52
2023-04-17T00:15:25.698Z,25.15
2023-04-17T00:15:57.296Z,26.35
2023-04-17T00:16:28.905Z,26.15
2023-04-17T00:17:00.589Z,26.17
2023-04-17T00:17:32.202Z,25.55
2023-04-17T00:18:03.784Z,26.42
2023-04-17T00:18:35.445Z,24.73
2023-04-17T00:19:06.976Z,26.83
2023-04-17T00:19:38.561Z,24.08
2023-04-17T00:20:10.870Z,25.92
2023-04-17T00:20:42.437Z,26.42
2023-04-17T00:21:14.239Z,25.55
2023-04-17T00:21:45.849Z,25.50
2023-04-17T00:22:17.445Z,25.45
2023-04-17T00:22:49.026Z,27.25
2023-04-17T00:23:20.901Z,27.42
2023-04-17T00:23:52.517Z,25.90
2023-04-17T00:24:24.026Z,25.70
2023-04-17T00:24:55.579Z,24.85
2023-04-17T00:25:27.253Z,23.63
2023-04-17T00:25:58.752Z,26.55
2023-04-17T00:26:32.349Z,26.30
2023-04-17T00:27:03.964Z,24.75
2023-04-17T00:27:35.608Z,24.02
2023-04-17T00:28:07.255Z,26.73
2023-04-17T00:28:38.963Z,23.98
2023-04-17T00:29:11.053Z,26.20
2023-04-17T00:29:42.884Z,24.98
2023-04-17T00:30:14.485Z,26.75
2023-04-17T00:30:46.733Z,25.30
2023-04-17T00:31:18.327Z,26.45
2023-04-17T00:31:50.037Z,25.85
2023-04-17T00:32:21.811Z,26.30
2023-04-17T00:32:53.968Z,26.77
2023-04-17T00:33:25.680Z,25.83
2023-04-17T00:33:58.914Z,27.17
2023-04-17T00:34:30.458Z,25.55
2023-04-17T00:35:02.215Z,25.70
2023-04-17T00:35:33.847Z,24.77
2023-04-17T00:36:05.981Z,24.70
2023-04-17T00:36:37.834Z,24.23
2023-04-17T00:37:09.398Z,25.08
2023-04-17T00:37:40.949Z,22.83
2023-04-17T00:38:13.391Z,26.77
2023-04-17T00:38:44.894Z,25.67
2023-04-17T00:39:16.499Z,24.75
2023-04-17T00:39:48.048Z,25.65
2023-04-17T00:40:19.624Z,25.88
2023-04-17T00:40:51.815Z,25.52
2023-04-17T00:41:23.352Z,25.33
2023-04-17T00:41:54.927Z,25.63
2023-04-17T00:42:27.052Z,26.30
2023-04-17T00:43:03.261Z,26.40
2023-04-17T00:43:35.015Z,25.27
2023-04-17T00:44:06.546Z,24.55
2023-04-17T00:44:38.287Z,25.73
2023-04-17T00:45:11.452Z,26.10
2023-04-17T00:45:43.180Z,24.60
2023-04-17T00:46:15.391Z,25.45
2023-04-17T00:46:46.954Z,25.60
2023-04-17T00:47:19.153Z,24.80
2023-04-17T00:47:51.715Z,24.55
2023-04-17T00:48:24.254Z,24.48
2023-04-17T00:48:55.831Z,26.20
2023-04-17T00:49:27.553Z,24.40
2023-04-17T00:49:59.325Z,24.92
2023-04-17T00:50:31.675Z,26.42
2023-04-17T00:51:03.884Z,23.90
2023-04-17T00:51:35.529Z,23.73
2023-04-17T00:52:07.411Z,26.83
2023-04-17T00:52:39.069Z,27.60
2023-04-17T00:53:11.494Z,26.13
2023-04-17T00:53:43.274Z,26.45
2023-04-17T00:54:15.090Z,26.00
2023-04-17T00:54:46.713Z,27.48
2023-04-17T00:55:18.461Z,26.80
2023-04-17T00:55:51.275Z,26.02
2023-04-17T00:56:22.823Z,27.13
2023-04-17T00:56:54.513Z,26.58
2023-04-17T00:57:26.740Z,27.48
2023-04-17T00:57:58.536Z,27.90
2023-04-17T00:58:31.074Z,27.25
2023-04-17T00:59:04.156Z,25.98
2023-04-17T00:59:36.505Z,26.23
2023-04-17T01:00:09.573Z,26.63
2023-04-17T01:00:41.280Z,28.10
2023-04-17T01:01:13.601Z,27.92
2023-04-17T01:01:45.874Z,28.42
2023-04-17T01:02:18.570Z,24.85
2023-04-17T01:02:50.524Z,28.73
2023-04-17T01:03:23.146Z,27.90
2023-04-17T01:03:55.239Z,27.23
2023-04-17T01:04:27.666Z,27.90
2023-04-17T01:04:59.230Z,27.58
2023-04-17T01:05:31.155Z,27.60
2023-04-17T01:06:03.756Z,27.33
2023-04-17T01:06:36.365Z,29.67
2023-04-17T01:07:08.148Z,28.75
2023-04-17T01:07:41.276Z,28.15
2023-04-17T01:08:12.951Z,25.55
2023-04-17T01:08:44.569Z,27.13
2023-04-17T01:09:16.940Z,27.10
2023-04-17T01:09:48.519Z,27.02
2023-04-17T01:10:20.298Z,26.60
2023-04-17T01:10:51.847Z,29.45
2023-04-17T01:11:23.565Z,27.45
2023-04-17T01:11:55.131Z,27.48
2023-04-17T01:12:26.886Z,28.27
2023-04-17T01:13:06.205Z,28.60
2023-04-17T01:13:48.689Z,26.63
2023-04-17T01:14:20.871Z,26.13
2023-04-17T01:14:53.798Z,26.45
2023-04-17T01:15:25.445Z,29.15
2023-04-17T01:15:56.962Z,29.00
2023-04-17T01:16:30.958Z,27.15
2023-04-17T01:17:02.644Z,26.17
2023-04-17T01:17:34.287Z,25.55
2023-04-17T01:18:06.732Z,29.00
2023-04-17T01:18:38.499Z,31.05
2023-04-17T01:19:11.338Z,29.13
2023-04-17T01:19:43.120Z,27.70
2023-04-17T01:20:14.706Z,27.42
2023-04-17T01:20:46.689Z,27.63
2023-04-17T01:21:19.624Z,27.13
2023-04-17T01:21:51.237Z,27.83
2023-04-17T01:22:22.825Z,26.48
2023-04-17T01:22:59.860Z,26.23
2023-04-17T01:23:43.304Z,26.38
2023-04-17T01:24:14.815Z,26.85
2023-04-17T01:24:47.377Z,27.83
2023-04-17T01:25:19.452Z,26.98
2023-04-17T01:25:51.566Z,27.00
2023-04-17T01:26:24.146Z,28.40
2023-04-17T01:26:56.489Z,28.20
2023-04-17T01:27:28.226Z,26.98
2023-04-17T01:28:00.314Z,26.45
2023-04-17T01:28:33.883Z,27.60
2023-04-17T01:29:05.492Z,26.33
2023-04-17T01:29:37.112Z,26.33
2023-04-17T01:30:09.122Z,24.35
2023-04-17T01:30:47.442Z,25.58
2023-04-17T01:31:19.749Z,26.42
2023-04-17T01:31:51.842Z,27.20
2023-04-17T01:32:23.369Z,25.23
2023-04-17T01:32:56.234Z,23.10
2023-04-17T01:33:27.806Z,24.95
2023-04-17T01:34:00.441Z,26.35
2023-04-17T01:34:32.591Z,26.13
2023-04-17T01:35:04.455Z,25.33
2023-04-17T01:35:36.059Z,26.63
2023-04-17T01:36:07.780Z,26.38
2023-04-17T01:36:39.304Z,26.70
2023-04-17T01:37:11.069Z,25.40
2023-04-17T01:37:42.783Z,25.42
2023-04-17T01:38:14.467Z,25.75
2023-04-17T01:38:46.462Z,25.35
2023-04-17T01:39:18.141Z,28.05
2023-04-17T01:39:49.745Z,25.20
2023-04-17T01:40:21.349Z,26.88
2023-04-17T01:40:53.236Z,26.90
2023-04-17T01:41:24.991Z,27.85
2023-04-17T01:41:56.653Z,26.23
2023-04-17T01:42:28.310Z,24.70
2023-04-17T01:42:59.815Z,26.77
2023-04-17T01:43:31.331Z,25.58
2023-04-17T01:44:02.881Z,25.30
2023-04-17T01:44:34.413Z,25.45
2023-04-17T01:45:06.501Z,24.45
2023-04-17T01:45:38.912Z,24.70
2023-04-17T01:46:10.693Z,25.92
2023-04-17T01:46:42.392Z,26.70
2023-04-17T01:47:14.074Z,24.77
2023-04-17T01:47:45.809Z,24.73
2023-04-17T01:48:17.490Z,25.00
2023-04-17T01:48:49.053Z,26.05
2023-04-17T01:49:20.614Z,25.42
2023-04-17T01:49:52.184Z,25.40
2023-04-17T01:50:23.702Z,24.92
2023-04-17T01:50:55.325Z,27.23
2023-04-17T01:51:27.942Z,24.80
2023-04-17T01:51:59.661Z,25.73
2023-04-17T01:52:31.275Z,25.67
2023-04-17T01:53:02.781Z,26.67
2023-04-17T01:53:34.576Z,27.00
2023-04-17T01:54:06.126Z,28.15
2023-04-17T01:54:37.834Z,24.55
2023-04-17T01:55:09.814Z,26.63
2023-04-17T01:55:41.526Z,24.83
2023-04-17T01:56:13.886Z,25.27
2023-04-17T01:56:45.444Z,24.30
2023-04-17T01:57:17.223Z,26.05
2023-04-17T01:57:49.824Z,26.02
2023-04-17T01:58:21.519Z,24.98
2023-04-17T01:58:53.493Z,26.30
2023-04-17T01:59:25.488Z,25.90
2023-04-17T01:59:57.096Z,26.27
2023-04-17T02:00:29.465Z,24.92
2023-04-17T02:01:01.316Z,25.30
2023-04-17T02:01:32.953Z,25.63
2023-04-17T02:02:04.768Z,26.25
2023-04-17T02:02:36.474Z,24.27
2023-04-17T02:03:08.208Z,24.40
2023-04-17T02:03:39.948Z,24.88
2023-04-17T02:04:11.684Z,23.45
2023-04-17T02:04:43.341Z,26.05
2023-04-17T02:05:14.934Z,26.05
2023-04-17T02:05:48.927Z,25.02
2023-04-17T02:06:20.677Z,25.42
2023-04-17T02:06:52.373Z,25.25
2023-04-17T02:07:23.888Z,25.63
2023-04-17T02:07:55.394Z,25.60
2023-04-17T02:08:27.253Z,23.70
2023-04-17T02:08:59.521Z,26.17
2023-04-17T02:09:31.037Z,25.70
2023-04-17T02:10:03.024Z,25.65
2023-04-17T02:10:34.733Z,25.17
2023-04-17T02:11:06.220Z,25.88
2023-04-17T02:11:37.930Z,25.77
2023-04-17T02:12:09.450Z,24.35
2023-04-17T02:12:40.971Z,25.80
2023-04-17T02:13:12.501Z,23.20
2023-04-17T02:13:46.188Z,25.02
2023-04-17T02:14:18.055Z,24.33
2023-04-17T02:14:49.580Z,25.67
2023-04-17T02:15:22.303Z,24.92
2023-04-17T02:15:53.932Z,24.63
2023-04-17T02:16:25.664Z,25.33
2023-04-17T02:16:57.633Z,25.27
2023-04-17T02:17:29.349Z,26.58
2023-04-17T02:18:01.944Z,24.52
2023-04-17T02:18:33.519Z,25.58
2023-04-17T02:19:05.273Z,25.63
2023-04-17T02:19:36.813Z,24.70
2023-04-17T02:20:08.979Z,25.73
2023-04-17T02:20:40.592Z,26.20
2023-04-17T02:21:12.084Z,25.02
2023-04-17T02:21:43.588Z,25.83
2023-04-17T02:22:15.826Z,25.17
2023-04-17T02:22:47.330Z,23.85
2023-04-17T02:23:18.852Z,26.67
2023-04-17T02:23:50.669Z,24.63
2023-04-17T02:24:22.195Z,25.33
2023-04-17T02:24:53.765Z,25.23
2023-04-17T02:25:25.381Z,24.95
2023-04-17T02:25:57.984Z,26.42
2023-04-17T02:26:29.561Z,25.80
2023-04-17T02:27:01.987Z,26.70
2023-04-17T02:27:33.807Z,24.08
2023-04-17T02:28:06.357Z,25.45
2023-04-17T02:28:39.427Z,26.52
2023-04-17T02:29:11.200Z,25.60
2023-04-17T02:29:42.854Z,26.35
2023-04-17T02:30:14.521Z,26.20
2023-04-17T02:30:46.032Z,23.27
2023-04-17T02:31:17.602Z,26.70
2023-04-17T02:31:50.736Z,24.65
2023-04-17T02:32:22.454Z,26.08
2023-04-17T02:32:54.960Z,25.58
2023-04-17T02:33:27.103Z,24.23
2023-04-17T02:33:58.623Z,25.58
2023-04-17T02:34:31.013Z,26.38
2023-04-17T02:35:02.673Z,26.23
2023-04-17T02:35:34.618Z,25.85
2023-04-17T02:36:06.428Z,25.15
2023-04-17T02:36:44.018Z,25.67
2023-04-17T02:37:15.832Z,26.55
2023-04-17T02:37:47.615Z,25.33
2023-04-17T02:38:19.293Z,24.60
2023-04-17T02:38:50.861Z,25.15
2023-04-17T02:39:22.384Z,26.65
2023-04-17T02:39:54.322Z,25.25
2023-04-17T02:40:26.103Z,26.77
2023-04-17T02:41:05.402Z,28.00
2023-04-17T02:41:38.034Z,25.90
2023-04-17T02:42:12.931Z,26.80
2023-04-17T02:42:45.966Z,26.73
2023-04-17T02:43:18.198Z,27.15
2023-04-17T02:43:49.930Z,28.55
2023-04-17T02:44:22.668Z,26.50
2023-04-17T02:44:54.206Z,26.35
2023-04-17T02:45:26.753Z,26.02
2023-04-17T02:45:58.735Z,25.48
2023-04-17T02:46:31.860Z,26.90
2023-04-17T02:47:03.518Z,27.27
2023-04-17T02:47:37.853Z,26.50
2023-04-17T02:48:09.492Z,25.50
2023-04-17T02:48:41.151Z,26.27
2023-04-17T02:49:13.327Z,26.75
2023-04-17T02:49:45.037Z,25.73
2023-04-17T02:50:16.579Z,25.80
2023-04-17T02:51:04.696Z,27.65
2023-04-17T02:51:36.524Z,26.90
2023-04-17T02:52:08.248Z,27.38
2023-04-17T02:52:40.329Z,26.98
2023-04-17T02:53:11.863Z,27.35
2023-04-17T02:53:43.381Z,26.90
2023-04-17T02:54:14.930Z,28.27
2023-04-17T02:54:47.138Z,26.80
2023-04-17T02:55:21.131Z,28.35
2023-04-17T02:55:52.808Z,27.75
2023-04-17T02:56:27.255Z,27.27
2023-04-17T02:56:58.777Z,30.33
2023-04-17T02:57:30.493Z,28.48
2023-04-17T02:58:02.028Z,28.00
2023-04-17T02:58:33.571Z,29.02
2023-04-17T02:59:05.159Z,28.77
2023-04-17T02:59:37.359Z,29.27
2023-04-17T03:00:12.748Z,26.50
2023-04-17T03:00:44.367Z,27.25
2023-04-17T03:01:20.225Z,29.85
2023-04-17T03:01:51.951Z,29.17
2023-04-17T03:02:24.545Z,28.00
2023-04-17T03:02:56.483Z,30.17
2023-04-17T03:03:31.212Z,28.25
2023-04-17T03:04:03.427Z,29.33
2023-04-17T03:04:35.710Z,27.60
2023-04-17T03:05:07.555Z,27.63
2023-04-17T03:05:39.797Z,29.33
2023-04-17T03:06:11.378Z,31.85
2023-04-17T03:06:43.116Z,30.40
2023-04-17T03:07:18.575Z,29.65
2023-04-17T03:07:52.740Z,28.05
2023-04-17T03:08:24.825Z,29.92
2023-04-17T03:08:56.959Z,29.20
2023-04-17T03:09:28.591Z,29.52
2023-04-17T03:10:00.131Z,29.23
2023-04-17T03:10:31.707Z,30.40
2023-04-17T03:11:03.465Z,30.58
2023-04-17T03:11:35.201Z,28.92
2023-04-17T03:12:06.820Z,28.95
2023-04-17T03:12:38.375Z,29.85
2023-04-17T03:13:09.896Z,31.50
2023-04-17T03:13:43.462Z,30.25
2023-04-17T03:14:15.581Z,30.27
2023-04-17T03:14:47.118Z,28.40
2023-04-17T03:15:18.767Z,30.27
2023-04-17T03:15:50.458Z,30.50
2023-04-17T03:16:22.273Z,30.83
2023-04-17T03:16:53.972Z,28.27
2023-04-17T03:17:25.793Z,31.77
2023-04-17T03:17:57.682Z,31.52
2023-04-17T03:18:29.394Z,31.45
2023-04-17T03:19:02.998Z,32.40
2023-04-17T03:19:34.655Z,30.83
2023-04-17T03:20:07.795Z,32.97
2023-04-17T03:20:39.491Z,30.75
2023-04-17T03:21:11.008Z,31.27
2023-04-17T03:21:42.596Z,30.60
2023-04-17T03:22:15.293Z,30.33
2023-04-17T03:22:46.919Z,29.48
2023-04-17T03:23:19.236Z,31.90
2023-04-17T03:23:50.877Z,31.73
2023-04-17T03:24:24.590Z,33.33
2023-04-17T03:24:56.193Z,31.30
2023-04-17T03:25:30.359Z,32.53
2023-04-17T03:26:02.046Z,32.28
2023-04-17T03:26:36.678Z,33.15
2023-04-17T03:27:12.441Z,31.17
2023-04-17T03:27:46.738Z,32.15
2023-04-17T03:28:19.156Z,33.00
2023-04-17T03:28:50.773Z,32.70
2023-04-17T03:29:22.402Z,31.27
2023-04-17T03:29:54.915Z,30.95
2023-04-17T03:30:26.958Z,34.92
2023-04-17T03:31:01.452Z,31.58
2023-04-17T03:31:34.333Z,31.48
2023-04-17T03:32:06.280Z,33.10
2023-04-17T03:32:38.209Z,32.85
2023-04-17T03:33:09.836Z,31.75
2023-04-17T03:33:41.861Z,34.08
2023-04-17T03:34:13.560Z,31.38
2023-04-17T03:34:45.994Z,30.42
2023-04-17T03:35:17.525Z,34.55
2023-04-17T03:35:49.095Z,34.33
2023-04-17T03:36:20.654Z,36.65
2023-04-17T03:36:52.340Z,34.22
2023-04-17T03:37:23.977Z,33.45
2023-04-17T03:37:55.882Z,34.25
2023-04-17T03:38:27.993Z,33.60
2023-04-17T03:38:59.826Z,33.83
2023-04-17T03:39:31.420Z,34.55
2023-04-17T03:40:05.238Z,35.90
2023-04-17T03:40:37.057Z,35.03
2023-04-17T03:41:10.184Z,36.60
2023-04-17T03:41:41.824Z,34.00
2023-04-17T03:42:14.898Z,34.78
2023-04-17T03:42:46.620Z,37.33
2023-04-17T03:43:18.403Z,36.47
2023-04-17T03:43:50.673Z,37.60
2023-04-17T03:44:22.247Z,35.38
2023-04-17T03:44:56.105Z,36.03
2023-04-17T03:45:29.219Z,34.95
2023-04-17T03:46:01.640Z,35.40
2023-04-17T03:46:34.324Z,35.03
2023-04-17T03:47:06.003Z,36.03
2023-04-17T03:47:37.834Z,37.33
2023-04-17T03:48:09.600Z,32.95
2023-04-17T03:48:42.584Z,36.80
2023-04-17T03:49:14.392Z,37.00
2023-04-17T03:49:46.157Z,35.30
2023-04-17T03:50:18.050Z,35.75
2023-04-17T03:50:56.775Z,35.58
2023-04-17T03:51:28.668Z,35.80
2023-04-17T03:52:05.575Z,34.67
2023-04-17T03:52:37.514Z,34.75
2023-04-17T03:53:09.875Z,36.28
2023-04-17T03:53:42.074Z,34.15
2023-04-17T03:54:16.532Z,37.10
2023-04-17T03:54:50.245Z,36.47
2023-04-17T03:55:22.262Z,37.88
2023-04-17T03:55:54.236Z,34.80
2023-04-17T03:56:30.955Z,36.45
2023-04-17T03:57:03.521Z,36.42
2023-04-17T03:57:36.258Z,37.17
2023-04-17T03:58:08.455Z,38.90
2023-04-17T03:58:40.038Z,35.25
2023-04-17T03:59:14.231Z,35.83
2023-04-17T03:59:47.998Z,39.88
2023-04-17T04:00:21.831Z,36.03
2023-04-17T04:00:58.957Z,36.53
2023-04-17T04:01:34.310Z,38.88
2023-04-17T04:02:23.050Z,35.28
2023-04-17T04:02:55.689Z,35.45
2023-04-17T04:03:32.003Z,36.22
2023-04-17T04:04:04.755Z,36.00
2023-04-17T04:04:36.611Z,37.80
2023-04-17T04:05:16.048Z,33.97
2023-04-17T04:05:48.090Z,35.85
2023-04-17T04:06:20.361Z,36.83
2023-04-17T04:06:54.478Z,35.75
2023-04-17T04:07:26.215Z,35.95
2023-04-17T04:07:58.133Z,37.85
2023-04-17T04:08:59.023Z,32.13
2023-04-17T04:09:30.793Z,33.33
2023-04-17T04:10:03.234Z,34.38
2023-04-17T04:10:35.417Z,37.67
2023-04-17T04:11:07.300Z,36.67
2023-04-17T04:11:41.859Z,35.70
2023-04-17T04:12:13.546Z,37.72
2023-04-17T04:12:48.389Z,37.60
2023-04-17T04:13:20.728Z,35.78
2023-04-17T04:13:57.761Z,36.08
2023-04-17T04:14:29.697Z,37.00
2023-04-17T04:15:01.373Z,37.22
2023-04-17T04:15:34.445Z,36.00
2023-04-17T04:16:09.590Z,37.95
2023-04-17T04:16:43.549Z,37.72
2023-04-17T04:17:17.168Z,40.25
2023-04-17T04:17:48.852Z,37.70
2023-04-17T04:18:20.703Z,37.33
2023-04-17T04:18:52.970Z,39.03
2023-04-17T04:19:25.058Z,38.85
2023-04-17T04:19:57.189Z,39.92
2023-04-17T04:20:29.563Z,35.95
2023-04-17T04:21:12.781Z,35.65
2023-04-17T04:21:46.495Z,37.15
2023-04-17T04:22:21.258Z,37.17
2023-04-17T04:22:59.333Z,36.78
2023-04-17T04:23:31.525Z,38.72
2023-04-17T04:24:03.246Z,36.42
2023-04-17T04:24:35.309Z,38.72
2023-04-17T04:25:08.486Z,37.38
2023-04-17T04:25:52.013Z,38.00
2023-04-17T04:26:33.355Z,36.28
2023-04-17T04:27:05.304Z,36.25
2023-04-17T04:27:39.670Z,37.40
2023-04-17T04:28:13.283Z,37.38
2023-04-17T04:28:44.867Z,40.65
2023-04-17T04:29:31.480Z,34.55
2023-04-17T04:30:10.446Z,36.28
2023-04-17T04:30:50.552Z,33.38
2023-04-17T04:31:25.741Z,32.65
2023-04-17T04:31:57.796Z,32.22
2023-04-17T04:32:34.845Z,32.67
2023-04-17T04:33:08.364Z,32.05
2023-04-17T04:33:40.275Z,30.77
2023-04-17T04:34:13.423Z,32.85
2023-04-17T04:34:45.032Z,33.70
2023-04-17T04:35:16.763Z,34.63
2023-04-17T04:35:48.833Z,31.33
2023-04-17T04:36:20.516Z,32.00
2023-04-17T04:36:57.383Z,32.65
2023-04-17T04:37:46.478Z,34.03
2023-04-17T04:38:18.846Z,32.53
2023-04-17T04:38:53.152Z,31.73
2023-04-17T04:39:31.431Z,32.88
2023-04-17T04:40:09.164Z,32.47
2023-04-17T04:40:44.023Z,32.58
2023-04-17T04:41:17.507Z,33.55
2023-04-17T04:41:52.149Z,32.60
2023-04-17T04:42:27.234Z,33.80
2023-04-17T04:43:17.102Z,33.55
2023-04-17T04:43:50.330Z,33.78
2023-04-17T04:44:22.097Z,31.73
2023-04-17T04:44:56.385Z,33.65
2023-04-17T04:45:31.171Z,36.35
2023-04-17T04:46:03.790Z,33.65
2023-04-17T04:46:38.690Z,34.22
2023-04-17T04:47:10.424Z,35.40
2023-04-17T04:47:42.730Z,33.25
2023-04-17T04:48:14.324Z,34.83
2023-04-17T04:48:45.926Z,30.50
2023-04-17T04:49:17.491Z,30.80
2023-04-17T04:49:49.563Z,33.25
2023-04-17T04:50:24.575Z,32.90
2023-04-17T04:50:56.401Z,34.42
2023-04-17T04:51:28.085Z,33.33
2023-04-17T04:51:59.773Z,31.13
2023-04-17T04:52:36.719Z,32.92
2023-04-17T04:53:17.337Z,33.67
2023-04-17T04:54:29.525Z,34.38
2023-04-17T04:55:04.637Z,30.23
2023-04-17T04:55:37.879Z,35.13
2023-04-17T04:56:10.360Z,33.92
2023-04-17T04:56:44.908Z,32.78
2023-04-17T04:57:17.914Z,34.85
2023-04-17T04:57:54.143Z,31.83
2023-04-17T04:58:26.422Z,33.05
2023-04-17T04:59:00.740Z,35.28
2023-04-17T04:59:36.741Z,34.42
2023-04-17T05:00:28.451Z,32.78
2023-04-17T05:01:02.897Z,34.92
2023-04-17T05:01:40.354Z,31.55
2023-04-17T05:02:13.636Z,33.13
2023-04-17T05:02:45.457Z,32.78
2023-04-17T05:03:17.404Z,36.90
2023-04-17T05:03:50.042Z,33.20
2023-04-17T05:04:27.623Z,32.53
2023-04-17T05:05:04.576Z,35.10
2023-04-17T05:05:38.533Z,32.45
2023-04-17T05:06:11.268Z,34.97
2023-04-17T05:06:47.808Z,33.10
2023-04-17T05:07:19.344Z,35.92
2023-04-17T05:07:53.490Z,33.28
2023-04-17T05:08:25.031Z,33.33
2023-04-17T05:09:05.692Z,36.55
2023-04-17T05:09:37.306Z,36.38
2023-04-17T05:10:10.095Z,37.25
2023-04-17T05:10:46.076Z,37.20
2023-04-17T05:11:18.329Z,35.05
2023-04-17T05:11:52.774Z,33.40
2023-04-17T05:12:24.523Z,34.65
2023-04-17T05:12:56.160Z,35.20
2023-04-17T05:13:30.069Z,33.80
2023-04-17T05:14:02.242Z,32.95
2023-04-17T05:14:39.370Z,36.10
2023-04-17T05:15:13.003Z,37.22
2023-04-17T05:15:44.832Z,34.65
2023-04-17T05:16:16.686Z,36.47
2023-04-17T05:16:48.305Z,35.15
2023-04-17T05:17:20.389Z,36.33
2023-04-17T05:17:52.042Z,35.95
2023-04-17T05:18:23.845Z,36.25
2023-04-17T05:18:55.617Z,35.22
2023-04-17T05:19:46.749Z,32.95
2023-04-17T05:20:19.071Z,33.38
2023-04-17T05:20:55.379Z,33.80
2023-04-17T05:21:31.122Z,37.30
2023-04-17T05:22:02.944Z,37.13
2023-04-17T05:22:38.635Z,34.38
2023-04-17T05:23:14.569Z,35.65
2023-04-17T05:23:46.187Z,34.80
2023-04-17T05:24:17.745Z,34.58
2023-04-17T05:24:49.355Z,37.45
2023-04-17T05:25:22.597Z,37.80
2023-04-17T05:25:54.333Z,37.80
2023-04-17T05:26:26.364Z,37.25
2023-04-17T05:26:58.193Z,33.67
2023-04-17T05:27:29.743Z,39.75
2023-04-17T05:28:01.758Z,36.85
2023-04-17T05:28:33.295Z,37.53
2023-04-17T05:29:04.935Z,36.92
2023-04-17T05:29:38.461Z,37.28
2023-04-17T05:30:11.028Z,37.88
2023-04-17T05:30:42.671Z,34.65
2023-04-17T05:31:23.947Z,35.83
2023-04-17T05:31:56.335Z,36.05
2023-04-17T05:32:46.309Z,36.20
2023-04-17T05:33:32.158Z,36.70
2023-04-17T05:34:06.136Z,34.42
2023-04-17T05:34:37.875Z,34.17
2023-04-17T05:35:09.747Z,34.15
2023-04-17T05:35:43.340Z,35.72
2023-04-17T05:36:14.962Z,35.35
2023-04-17T05:36:46.674Z,33.78
2023-04-17T05:37:19.032Z,34.38
2023-04-17T05:37:50.843Z,38.00
2023-04-17T05:38:22.388Z,35.00
2023-04-17T05:38:53.910Z,35.20
2023-04-17T05:39:25.593Z,34.97
2023-04-17T05:39:57.134Z,35.38
2023-04-17T05:40:28.700Z,35.53
2023-04-17T05:41:01.773Z,36.20
2023-04-17T05:41:33.579Z,35.67
2023-04-17T05:42:05.298Z,34.38
2023-04-17T05:42:37.105Z,33.67
2023-04-17T05:43:10.238Z,35.10
2023-04-17T05:43:43.202Z,34.85
2023-04-17T05:44:14.708Z,34.97
2023-04-17T05:44:47.372Z,35.38
2023-04-17T05:45:19.278Z,35.33
2023-04-17T05:45:51.080Z,33.47
2023-04-17T05:46:22.840Z,32.80
2023-04-17T05:46:57.277Z,35.80
2023-04-17T05:47:29.197Z,34.55
2023-04-17T05:48:01.074Z,32.55
2023-04-17T05:48:33.136Z,34.08
2023-04-17T05:49:05.003Z,34.33
2023-04-17T05:49:36.672Z,34.50
2023-04-17T05:50:09.253Z,35.00
2023-04-17T05:50:41.129Z,33.60
2023-04-17T05:51:13.051Z,35.30
2023-04-17T05:51:44.605Z,35.10
2023-04-17T05:52:16.375Z,35.65
2023-04-17T05:52:49.067Z,34.05
2023-04-17T05:53:21.619Z,36.38
2023-04-17T05:53:56.403Z,32.55
2023-04-17T05:54:30.186Z,34.40
2023-04-17T05:55:03.808Z,34.60
2023-04-17T05:55:37.481Z,39.13
2023-04-17T05:56:12.725Z,36.50
2023-04-17T05:56:44.266Z,35.35
2023-04-17T05:57:16.521Z,37.85
2023-04-17T05:57:48.226Z,35.70
2023-04-17T05:58:23.668Z,35.83
2023-04-17T05:58:58.854Z,33.30
2023-04-17T05:59:30.562Z,35.10
2023-04-17T06:00:09.043Z,33.67
2023-04-17T06:00:46.278Z,34.42
2023-04-17T06:01:22.516Z,30.80
2023-04-17T06:01:59.524Z,35.45
2023-04-17T06:02:31.460Z,34.83
2023-04-17T06:03:03.571Z,37.55
2023-04-17T06:03:40.123Z,35.45
2023-04-17T06:04:19.983Z,39.33
2023-04-17T06:04:53.423Z,37.05
2023-04-17T06:05:25.218Z,36.40
2023-04-17T06:05:57.306Z,36.50
2023-04-17T06:06:29.775Z,37.08
2023-04-17T06:07:03.171Z,39.17
2023-04-17T06:07:35.177Z,40.40
2023-04-17T06:08:07.085Z,37.28
2023-04-17T06:08:38.667Z,37.45
2023-04-17T06:09:11.366Z,39.17
2023-04-17T06:09:43.335Z,39.10
2023-04-17T06:10:15.813Z,39.63
2023-04-17T06:10:50.148Z,37.08
2023-04-17T06:11:21.759Z,39.15
2023-04-17T06:11:53.698Z,39.63
2023-04-17T06:12:25.488Z,37.28
2023-04-17T06:12:57.689Z,38.88
2023-04-17T06:13:29.535Z,36.75
2023-04-17T06:14:01.980Z,35.75
2023-04-17T06:14:33.558Z,40.95
2023-04-17T06:15:11.357Z,39.47
2023-04-17T06:15:43.020Z,38.85
2023-04-17T06:16:14.609Z,40.85
2023-04-17T06:16:46.886Z,39.83
2023-04-17T06:17:21.305Z,41.92
2023-04-17T06:17:53.094Z,41.58
2023-04-17T06:18:24.761Z,39.15
2023-04-17T06:18:56.323Z,37.30
2023-04-17T06:19:27.914Z,37.88
2023-04-17T06:19:59.663Z,39.10
2023-04-17T06:20:31.468Z,39.78
2023-04-17T06:21:03.005Z,39.85
2023-04-17T06:21:34.610Z,39.50
2023-04-17T06:22:06.387Z,40.33
2023-04-17T06:22:39.311Z,39.40
2023-04-17T06:23:10.885Z,39.88
2023-04-17T06:23:42.399Z,38.42
2023-04-17T06:24:13.920Z,41.08
2023-04-17T06:24:50.393Z,43.10
2023-04-17T06:25:22.169Z,41.67
2023-04-17T06:25:53.931Z,40.88
2023-04-17T06:26:25.587Z,36.88
2023-04-17T06:26:57.966Z,40.35
2023-04-17T06:27:29.626Z,40.15
2023-04-17T06:28:01.545Z,38.38
2023-04-17T06:28:33.642Z,39.60
2023-04-17T06:29:05.528Z,39.35
2023-04-17T06:29:38.834Z,37.85
2023-04-17T06:30:10.731Z,39.92
2023-04-17T06:30:53.420Z,36.08
2023-04-17T06:31:25.453Z,35.75
2023-04-17T06:31:57.029Z,38.80
2023-04-17T06:32:28.794Z,37.15
2023-04-17T06:33:00.493Z,38.53
2023-04-17T06:33:32.535Z,40.35
2023-04-17T06:34:04.121Z,37.72
2023-04-17T06:34:56.096Z,38.03
2023-04-17T06:35:42.075Z,34.40
2023-04-17T06:36:39.601Z,36.90
2023-04-17T06:37:11.740Z,36.28
2023-04-17T06:37:43.526Z,38.28
2023-04-17T06:38:15.231Z,38.58
2023-04-17T06:38:48.165Z,34.13
2023-04-17T06:39:23.130Z,38.42
2023-04-17T06:39:54.730Z,35.60
2023-04-17T06:40:26.448Z,38.42
2023-04-17T06:40:58.150Z,36.58
2023-04-17T06:41:29.718Z,36.42
2023-04-17T06:42:02.420Z,37.20
2023-04-17T06:42:35.365Z,38.40
2023-04-17T06:43:07.749Z,40.17
2023-04-17T06:43:43.199Z,36.05
2023-04-17T06:44:20.502Z,39.78
2023-04-17T06:44:52.542Z,39.60
2023-04-17T06:45:24.254Z,39.08
2023-04-17T06:45:55.879Z,38.10
2023-04-17T06:46:27.818Z,41.80
2023-04-17T06:47:03.476Z,38.83
2023-04-17T06:47:35.132Z,38.05
2023-04-17T06:48:07.328Z,37.30
2023-04-17T06:48:38.831Z,37.83
2023-04-17T06:49:10.611Z,38.35
2023-04-17T06:49:42.440Z,39.72
2023-04-17T06:50:14.106Z,37.15
2023-04-17T06:50:45.666Z,35.65
2023-04-17T06:51:21.694Z,40.75
2023-04-17T06:51:53.261Z,39.20
2023-04-17T06:52:24.903Z,38.75
2023-04-17T06:52:56.533Z,38.38
2023-04-17T06:53:28.034Z,39.65
2023-04-17T06:53:59.617Z,39.05
2023-04-17T06:54:31.181Z,39.30
2023-04-17T06:55:02.680Z,35.63
2023-04-17T06:55:34.204Z,37.70
2023-04-17T06:56:05.892Z,38.50
2023-04-17T06:56:37.591Z,37.17
2023-04-17T06:57:10.739Z,38.28
2023-04-17T06:57:42.307Z,37.35
2023-04-17T06:58:14.143Z,38.22
2023-04-17T06:58:45.775Z,38.72
2023-04-17T06:59:17.883Z,37.78
2023-04-17T06:59:49.486Z,36.67
2023-04-17T07:00:21.752Z,38.15
2023-04-17T07:00:53.488Z,37.97
2023-04-17T07:01:25.142Z,36.58
2023-04-17T07:01:56.737Z,38.80
2023-04-17T07:02:28.429Z,38.58
2023-04-17T07:03:00.623Z,40.15
2023-04-17T07:03:32.386Z,40.60
2023-04-17T07:04:04.150Z,39.58
2023-04-17T07:04:35.915Z,37.20